createdAt,value
2018-06-25T00:00:47.049Z,1017.77
2018-06-25T00:01:46.851Z,1017.78
2018-06-25T00:02:46.853Z,1017.77
2018-06-25T00:03:47.061Z,1017.84
2018-06-25T00:04:46.845Z,1017.83
2018-06-25T00:05:46.861Z,1017.84
2018-06-25T00:06:47.077Z,1017.84
2018-06-25T00:07:46.846Z,1017.87
2018-06-25T00:08:46.864Z,1017.87
2018-06-25T00:09:46.850Z,1017.85
2018-06-25T00:10:46.866Z,1017.86
2018-06-25T00:11:46.849Z,1017.89
2018-06-25T00:12:47.068Z,1017.87
2018-06-25T00:13:46.855Z,1017.78
2018-06-25T00:14:47.066Z,1017.81
2018-06-25T00:15:46.856Z,1017.79
2018-06-25T00:16:46.874Z,1017.82
2018-06-25T00:17:47.070Z,1017.84
2018-06-25T00:18:46.861Z,1017.84
2018-06-25T00:19:46.860Z,1017.86
2018-06-25T00:20:46.861Z,1017.85
2018-06-25T00:21:46.881Z,1017.87
2018-06-25T00:22:47.080Z,1017.82
2018-06-25T00:23:46.878Z,1017.80
2018-06-25T00:24:47.077Z,1017.80
2018-06-25T00:25:46.881Z,1017.80
2018-06-25T00:26:46.869Z,1017.78
2018-06-25T00:27:46.880Z,1017.78
2018-06-25T00:28:47.082Z,1017.81
2018-06-25T00:29:47.081Z,1017.86
2018-06-25T00:30:46.885Z,1017.86
2018-06-25T00:31:46.871Z,1017.87
2018-06-25T00:32:47.074Z,1017.88
2018-06-25T00:33:47.101Z,1017.91
2018-06-25T00:34:46.887Z,1017.93
2018-06-25T00:35:46.875Z,1017.91
2018-06-25T00:36:46.887Z,1017.91
2018-06-25T00:37:47.080Z,1017.90
2018-06-25T00:38:46.891Z,1017.92
2018-06-25T00:39:46.878Z,1017.90
2018-06-25T00:40:46.886Z,1017.93
2018-06-25T00:41:47.082Z,1017.91
2018-06-25T00:42:46.882Z,1017.90
2018-06-25T00:43:46.881Z,1017.93
2018-06-25T00:44:46.884Z,1017.93
2018-06-25T00:45:47.102Z,1017.93
2018-06-25T00:46:46.886Z,1017.91
2018-06-25T00:47:46.896Z,1017.89
2018-06-25T00:48:46.888Z,1017.87
2018-06-25T00:49:47.095Z,1017.90
2018-06-25T00:50:46.892Z,1017.89
2018-06-25T00:51:46.899Z,1017.91
2018-06-25T00:52:46.898Z,1017.89
2018-06-25T00:53:46.891Z,1017.84
2018-06-25T00:54:46.890Z,1017.83
2018-06-25T00:55:46.889Z,1017.84
2018-06-25T00:56:46.896Z,1017.84
2018-06-25T00:57:46.896Z,1017.84
2018-06-25T00:58:46.904Z,1017.84
2018-06-25T00:59:46.909Z,1017.83
2018-06-25T01:00:46.917Z,1017.87
2018-06-25T01:01:47.113Z,1017.85
2018-06-25T01:02:46.905Z,1017.83
2018-06-25T01:03:46.917Z,1017.87
2018-06-25T01:04:46.899Z,1017.85
2018-06-25T01:05:46.914Z,1017.79
2018-06-25T01:06:47.115Z,1017.79
2018-06-25T01:07:46.901Z,1017.78
2018-06-25T01:08:46.919Z,1017.78
2018-06-25T01:09:47.115Z,1017.76
2018-06-25T01:10:46.916Z,1017.76
2018-06-25T01:11:47.114Z,1017.78
2018-06-25T01:12:47.120Z,1017.80
2018-06-25T01:13:46.922Z,1017.79
2018-06-25T01:14:46.908Z,1017.79
2018-06-25T01:15:46.909Z,1017.80
2018-06-25T01:16:47.125Z,1017.84
2018-06-25T01:17:46.927Z,1017.83
2018-06-25T01:18:46.925Z,1017.82
2018-06-25T01:19:46.942Z,1017.80
2018-06-25T01:20:47.127Z,1017.83
2018-06-25T01:21:46.927Z,1017.82
2018-06-25T01:22:46.929Z,1017.80
2018-06-25T01:23:46.927Z,1017.85
2018-06-25T01:24:46.928Z,1017.86
2018-06-25T01:25:46.918Z,1017.86
2018-06-25T01:26:46.944Z,1017.90
2018-06-25T01:27:47.136Z,1017.90
2018-06-25T01:28:46.940Z,1017.88
2018-06-25T01:29:46.922Z,1017.88
2018-06-25T01:30:47.126Z,1017.90
2018-06-25T01:31:46.932Z,1017.87
2018-06-25T01:32:46.935Z,1017.90
2018-06-25T01:33:47.128Z,1017.87
2018-06-25T01:34:46.938Z,1017.83
2018-06-25T01:35:47.139Z,1017.90
2018-06-25T01:36:46.949Z,1017.87
2018-06-25T01:37:46.953Z,1017.89
2018-06-25T01:38:47.132Z,1017.88
2018-06-25T01:39:46.943Z,1017.86
2018-06-25T01:40:46.932Z,1017.82
2018-06-25T01:41:46.936Z,1017.85
2018-06-25T01:42:46.936Z,1017.82
2018-06-25T01:43:47.147Z,1017.85
2018-06-25T01:44:46.939Z,1017.82
2018-06-25T01:45:46.937Z,1017.84
2018-06-25T01:46:46.938Z,1017.81
2018-06-25T01:47:46.942Z,1017.82
2018-06-25T01:48:46.949Z,1017.81
2018-06-25T01:49:47.143Z,1017.82
2018-06-25T01:50:46.972Z,1017.84
2018-06-25T01:51:46.942Z,1017.82
2018-06-25T01:52:46.943Z,1017.81
2018-06-25T01:53:46.942Z,1017.80
2018-06-25T01:54:47.162Z,1017.81
2018-06-25T01:55:46.954Z,1017.85
2018-06-25T01:56:46.947Z,1017.82
2018-06-25T01:57:46.981Z,1017.78
2018-06-25T01:58:46.952Z,1017.79
2018-06-25T01:59:46.954Z,1017.79
2018-06-25T02:00:46.949Z,1017.80
2018-06-25T02:01:47.171Z,1017.82
2018-06-25T02:02:46.965Z,1017.80
2018-06-25T02:03:46.953Z,1017.81
2018-06-25T02:04:46.959Z,1017.85
2018-06-25T02:05:47.170Z,1017.88
2018-06-25T02:06:47.176Z,1017.91
2018-06-25T02:07:46.989Z,1017.93
2018-06-25T02:08:47.159Z,1017.91
2018-06-25T02:09:46.980Z,1017.94
2018-06-25T02:10:46.959Z,1017.91
2018-06-25T02:11:47.176Z,1017.92
2018-06-25T02:12:46.970Z,1017.91
2018-06-25T02:13:46.989Z,1017.91
2018-06-25T02:14:46.985Z,1017.91
2018-06-25T02:15:46.968Z,1017.91
2018-06-25T02:16:46.980Z,1017.93
2018-06-25T02:17:46.965Z,1017.91
2018-06-25T02:18:46.975Z,1017.91
2018-06-25T02:19:47.194Z,1017.88
2018-06-25T02:20:47.166Z,1017.89
2018-06-25T02:21:46.978Z,1017.89
2018-06-25T02:22:46.968Z,1017.87
2018-06-25T02:23:46.966Z,1017.88
2018-06-25T02:24:47.169Z,1017.86
2018-06-25T02:25:47.169Z,1017.83
2018-06-25T02:26:46.981Z,1017.83
2018-06-25T02:27:46.992Z,1017.84
2018-06-25T02:28:46.974Z,1017.86
2018-06-25T02:29:47.180Z,1017.90
2018-06-25T02:30:46.983Z,1017.86
2018-06-25T02:31:47.188Z,1017.86
2018-06-25T02:32:46.973Z,1017.89
2018-06-25T02:33:46.974Z,1017.88
2018-06-25T02:34:46.988Z,1017.90
2018-06-25T02:35:46.976Z,1017.88
2018-06-25T02:36:47.174Z,1017.90
2018-06-25T02:37:47.004Z,1017.86
2018-06-25T02:38:46.995Z,1017.87
2018-06-25T02:39:46.977Z,1017.86
2018-06-25T02:40:47.192Z,1017.86
2018-06-25T02:41:46.979Z,1017.86
2018-06-25T02:42:46.992Z,1017.84
2018-06-25T02:43:46.980Z,1017.87
2018-06-25T02:44:46.978Z,1017.86
2018-06-25T02:45:47.182Z,1017.84
2018-06-25T02:46:47.183Z,1017.86
2018-06-25T02:47:46.981Z,1017.86
2018-06-25T02:48:47.186Z,1017.88
2018-06-25T02:49:46.996Z,1017.89
2018-06-25T02:50:46.984Z,1017.90
2018-06-25T02:51:46.985Z,1017.90
2018-06-25T02:52:47.195Z,1017.87
2018-06-25T02:53:46.995Z,1017.87
2018-06-25T02:54:46.999Z,1017.89
2018-06-25T02:55:46.986Z,1017.85
2018-06-25T02:56:47.001Z,1017.83
2018-06-25T02:57:46.991Z,1017.87
2018-06-25T02:58:46.999Z,1017.87
2018-06-25T02:59:46.990Z,1017.88
2018-06-25T03:00:46.988Z,1017.90
2018-06-25T03:01:47.000Z,1017.92
2018-06-25T03:02:47.207Z,1017.92
2018-06-25T03:03:46.995Z,1017.98
2018-06-25T03:04:46.987Z,1017.94
2018-06-25T03:05:46.990Z,1017.96
2018-06-25T03:06:47.004Z,1017.96
2018-06-25T03:07:47.210Z,1017.96
2018-06-25T03:08:46.998Z,1017.94
2018-06-25T03:09:47.008Z,1017.92
2018-06-25T03:10:47.002Z,1017.95
2018-06-25T03:11:46.994Z,1017.96
2018-06-25T03:12:47.000Z,1017.93
2018-06-25T03:13:46.994Z,1017.93
2018-06-25T03:14:47.005Z,1017.96
2018-06-25T03:15:46.998Z,1017.99
2018-06-25T03:16:46.996Z,1018.01
2018-06-25T03:17:47.210Z,1018.02
2018-06-25T03:18:46.998Z,1018.02
2018-06-25T03:19:47.008Z,1017.99
2018-06-25T03:20:46.998Z,1017.94
2018-06-25T03:21:47.011Z,1017.98
2018-06-25T03:22:47.225Z,1017.96
2018-06-25T03:23:47.214Z,1017.94
2018-06-25T03:24:47.011Z,1017.93
2018-06-25T03:25:47.005Z,1018.00
2018-06-25T03:26:47.004Z,1017.96
2018-06-25T03:27:47.039Z,1017.99
2018-06-25T03:28:47.013Z,1017.99
2018-06-25T03:29:47.020Z,1018.04
2018-06-25T03:30:47.206Z,1018.02
2018-06-25T03:31:47.004Z,1018.06
2018-06-25T03:32:47.032Z,1018.09
2018-06-25T03:33:47.009Z,1018.10
2018-06-25T03:34:47.021Z,1018.07
2018-06-25T03:35:47.222Z,1018.12
2018-06-25T03:36:47.018Z,1018.07
2018-06-25T03:37:47.021Z,1018.11
2018-06-25T03:38:47.233Z,1018.10
2018-06-25T03:39:47.027Z,1018.10
2018-06-25T03:40:47.030Z,1018.11
2018-06-25T03:41:47.032Z,1018.10
2018-06-25T03:42:47.026Z,1018.16
2018-06-25T03:43:47.019Z,1018.12
2018-06-25T03:44:47.209Z,1018.11
2018-06-25T03:45:47.211Z,1018.05
2018-06-25T03:46:47.022Z,1018.06
2018-06-25T03:47:47.014Z,1018.07
2018-06-25T03:48:47.012Z,1018.10
2018-06-25T03:49:47.010Z,1018.09
2018-06-25T03:50:47.037Z,1018.06
2018-06-25T03:51:47.025Z,1018.08
2018-06-25T03:52:47.011Z,1018.05
2018-06-25T03:53:47.011Z,1018.06
2018-06-25T03:54:47.026Z,1018.09
2018-06-25T03:55:47.013Z,1018.11
2018-06-25T03:56:47.227Z,1018.11
2018-06-25T03:57:47.032Z,1018.12
2018-06-25T03:58:47.015Z,1018.14
2018-06-25T03:59:47.018Z,1018.12
2018-06-25T04:00:47.036Z,1018.14
2018-06-25T04:01:47.025Z,1018.14
2018-06-25T04:02:47.041Z,1018.14
2018-06-25T04:03:47.023Z,1018.16
2018-06-25T04:04:47.232Z,1018.16
2018-06-25T04:05:47.016Z,1018.18
2018-06-25T04:06:47.029Z,1018.16
2018-06-25T04:07:47.054Z,1018.22
2018-06-25T04:08:47.042Z,1018.17
2018-06-25T04:09:47.031Z,1018.16
2018-06-25T04:10:47.031Z,1018.18
2018-06-25T04:11:47.016Z,1018.18
2018-06-25T04:12:47.017Z,1018.22
2018-06-25T04:13:47.032Z,1018.21
2018-06-25T04:14:47.037Z,1018.23
2018-06-25T04:15:47.045Z,1018.21
2018-06-25T04:16:47.034Z,1018.21
2018-06-25T04:17:47.021Z,1018.20
2018-06-25T04:18:47.018Z,1018.21
2018-06-25T04:19:47.222Z,1018.20
2018-06-25T04:20:47.285Z,1018.23
2018-06-25T04:21:47.219Z,1018.24
2018-06-25T04:22:47.017Z,1018.26
2018-06-25T04:23:47.081Z,1018.29
2018-06-25T04:24:47.015Z,1018.26
2018-06-25T04:25:47.229Z,1018.24
2018-06-25T04:26:47.018Z,1018.26
2018-06-25T04:27:47.019Z,1018.30
2018-06-25T04:28:47.032Z,1018.30
2018-06-25T04:29:47.017Z,1018.30
2018-06-25T04:30:47.293Z,1018.31
2018-06-25T04:31:47.022Z,1018.34
2018-06-25T04:32:47.023Z,1018.28
2018-06-25T04:33:47.222Z,1018.30
2018-06-25T04:34:47.020Z,1018.29
2018-06-25T04:35:47.032Z,1018.24
2018-06-25T04:36:47.020Z,1018.28
2018-06-25T04:37:47.021Z,1018.30
2018-06-25T04:38:47.025Z,1018.30
2018-06-25T04:39:47.225Z,1018.37
2018-06-25T04:40:47.236Z,1018.33
2018-06-25T04:41:47.020Z,1018.40
2018-06-25T04:42:47.020Z,1018.41
2018-06-25T04:43:47.030Z,1018.40
2018-06-25T04:44:47.234Z,1018.44
2018-06-25T04:45:47.024Z,1018.39
2018-06-25T04:46:47.021Z,1018.37
2018-06-25T04:47:47.033Z,1018.39
2018-06-25T04:48:47.032Z,1018.37
2018-06-25T04:49:47.024Z,1018.38
2018-06-25T04:50:47.024Z,1018.41
2018-06-25T04:51:47.041Z,1018.39
2018-06-25T04:52:47.025Z,1018.41
2018-06-25T04:53:47.024Z,1018.38
2018-06-25T04:54:47.035Z,1018.36
2018-06-25T04:55:47.229Z,1018.37
2018-06-25T04:56:47.025Z,1018.40
2018-06-25T04:57:47.026Z,1018.41
2018-06-25T04:58:47.029Z,1018.41
2018-06-25T04:59:47.050Z,1018.39
2018-06-25T05:00:47.036Z,1018.41
2018-06-25T05:01:47.228Z,1018.41
2018-06-25T05:02:47.049Z,1018.42
2018-06-25T05:03:47.027Z,1018.46
2018-06-25T05:04:47.041Z,1018.43
2018-06-25T05:05:47.029Z,1018.44
2018-06-25T05:06:47.045Z,1018.49
2018-06-25T05:07:47.033Z,1018.53
2018-06-25T05:08:47.050Z,1018.53
2018-06-25T05:09:47.030Z,1018.51
2018-06-25T05:10:47.235Z,1018.45
2018-06-25T05:11:47.239Z,1018.51
2018-06-25T05:12:47.236Z,1018.52
2018-06-25T05:13:47.032Z,1018.55
2018-06-25T05:14:47.233Z,1018.56
2018-06-25T05:15:47.236Z,1018.59
2018-06-25T05:16:47.032Z,1018.55
2018-06-25T05:17:47.035Z,1018.55
2018-06-25T05:18:47.036Z,1018.58
2018-06-25T05:19:47.037Z,1018.54
2018-06-25T05:20:47.048Z,1018.59
2018-06-25T05:21:47.039Z,1018.61
2018-06-25T05:22:47.048Z,1018.61
2018-06-25T05:23:47.037Z,1018.63
2018-06-25T05:24:47.040Z,1018.64
2018-06-25T05:25:47.038Z,1018.68
2018-06-25T05:26:47.049Z,1018.71
2018-06-25T05:27:47.059Z,1018.73
2018-06-25T05:28:47.243Z,1018.73
2018-06-25T05:29:47.245Z,1018.73
2018-06-25T05:30:47.244Z,1018.70
2018-06-25T05:31:47.075Z,1018.75
2018-06-25T05:32:47.041Z,1018.73
2018-06-25T05:33:47.046Z,1018.67
2018-06-25T05:34:47.257Z,1018.73
2018-06-25T05:35:47.047Z,1018.75
2018-06-25T05:36:47.043Z,1018.74
2018-06-25T05:37:47.048Z,1018.80
2018-06-25T05:38:47.046Z,1018.74
2018-06-25T05:39:47.251Z,1018.76
2018-06-25T05:40:47.059Z,1018.78
2018-06-25T05:41:47.050Z,1018.72
2018-06-25T05:42:47.050Z,1018.75
2018-06-25T05:43:47.048Z,1018.75
2018-06-25T05:44:47.062Z,1018.73
2018-06-25T05:45:47.050Z,1018.73
2018-06-25T05:46:47.051Z,1018.73
2018-06-25T05:47:47.054Z,1018.74
2018-06-25T05:48:47.285Z,1018.75
2018-06-25T05:49:47.274Z,1018.76
2018-06-25T05:50:47.064Z,1018.75
2018-06-25T05:51:47.051Z,1018.72
2018-06-25T05:52:47.062Z,1018.73
2018-06-25T05:53:47.053Z,1018.76
2018-06-25T05:54:47.253Z,1018.76
2018-06-25T05:55:47.265Z,1018.78
2018-06-25T05:56:47.053Z,1018.77
2018-06-25T05:57:47.055Z,1018.77
2018-06-25T05:58:47.056Z,1018.79
2018-06-25T05:59:47.064Z,1018.81
2018-06-25T06:00:47.055Z,1018.85
2018-06-25T06:01:47.052Z,1018.86
2018-06-25T06:02:47.055Z,1018.89
2018-06-25T06:03:47.056Z,1018.87
2018-06-25T06:04:47.056Z,1018.92
2018-06-25T06:05:47.054Z,1018.93
2018-06-25T06:06:47.059Z,1018.92
2018-06-25T06:07:47.058Z,1018.97
2018-06-25T06:08:47.071Z,1018.96
2018-06-25T06:09:47.080Z,1018.99
2018-06-25T06:10:47.061Z,1018.99
2018-06-25T06:11:47.263Z,1018.98
2018-06-25T06:12:47.062Z,1019.00
2018-06-25T06:13:47.102Z,1018.99
2018-06-25T06:14:47.271Z,1019.00
2018-06-25T06:15:47.062Z,1018.99
2018-06-25T06:16:47.076Z,1019.01
2018-06-25T06:17:47.062Z,1019.00
2018-06-25T06:18:47.063Z,1018.99
2018-06-25T06:19:47.275Z,1019.02
2018-06-25T06:20:47.263Z,1018.97
2018-06-25T06:21:47.073Z,1019.00
2018-06-25T06:22:47.288Z,1019.01
2018-06-25T06:23:47.076Z,1019.04
2018-06-25T06:24:47.064Z,1019.04
2018-06-25T06:25:47.271Z,1019.04
2018-06-25T06:26:47.077Z,1019.05
2018-06-25T06:27:47.065Z,1019.07
2018-06-25T06:28:47.279Z,1019.06
2018-06-25T06:29:47.065Z,1019.10
2018-06-25T06:30:47.268Z,1019.10
2018-06-25T06:31:47.071Z,1019.15
2018-06-25T06:32:47.079Z,1019.13
2018-06-25T06:33:47.271Z,1019.15
2018-06-25T06:34:47.271Z,1019.11
2018-06-25T06:35:47.292Z,1019.14
2018-06-25T06:36:47.070Z,1019.14
2018-06-25T06:37:47.069Z,1019.13
2018-06-25T06:38:47.070Z,1019.16
2018-06-25T06:39:47.104Z,1019.18
2018-06-25T06:40:47.096Z,1019.16
2018-06-25T06:41:47.086Z,1019.19
2018-06-25T06:42:47.073Z,1019.20
2018-06-25T06:43:47.089Z,1019.21
2018-06-25T06:44:47.086Z,1019.19
2018-06-25T06:45:47.085Z,1019.18
2018-06-25T06:46:47.076Z,1019.21
2018-06-25T06:47:47.104Z,1019.22
2018-06-25T06:48:47.090Z,1019.21
2018-06-25T06:49:47.087Z,1019.25
2018-06-25T06:50:47.077Z,1019.25
2018-06-25T06:51:47.080Z,1019.27
2018-06-25T06:52:47.289Z,1019.29
2018-06-25T06:53:47.091Z,1019.31
2018-06-25T06:54:47.090Z,1019.32
2018-06-25T06:55:47.078Z,1019.35
2018-06-25T06:56:47.092Z,1019.34
2018-06-25T06:57:47.115Z,1019.35
2018-06-25T06:58:47.094Z,1019.37
2018-06-25T06:59:47.098Z,1019.35
2018-06-25T07:00:47.081Z,1019.37
2018-06-25T07:01:47.288Z,1019.37
2018-06-25T07:02:47.296Z,1019.34
2018-06-25T07:03:47.285Z,1019.32
2018-06-25T07:04:47.140Z,1019.36
2018-06-25T07:05:47.094Z,1019.37
2018-06-25T07:06:47.296Z,1019.39
2018-06-25T07:07:47.301Z,1019.36
2018-06-25T07:08:47.086Z,1019.40
2018-06-25T07:09:47.087Z,1019.41
2018-06-25T07:10:47.085Z,1019.40
2018-06-25T07:11:47.097Z,1019.40
2018-06-25T07:12:47.097Z,1019.40
2018-06-25T07:13:47.087Z,1019.40
2018-06-25T07:14:47.087Z,1019.40
2018-06-25T07:15:47.302Z,1019.38
2018-06-25T07:16:47.091Z,1019.41
2018-06-25T07:17:47.306Z,1019.43
2018-06-25T07:18:47.091Z,1019.41
2018-06-25T07:19:47.089Z,1019.43
2018-06-25T07:20:47.242Z,1019.46
2018-06-25T07:21:47.091Z,1019.43
2018-06-25T07:22:47.107Z,1019.43
2018-06-25T07:23:47.091Z,1019.43
2018-06-25T07:24:47.308Z,1019.42
2018-06-25T07:25:47.107Z,1019.41
2018-06-25T07:26:47.095Z,1019.41
2018-06-25T07:27:47.110Z,1019.43
2018-06-25T07:28:47.348Z,1019.42
2018-06-25T07:29:47.314Z,1019.43
2018-06-25T07:30:47.098Z,1019.45
2018-06-25T07:31:47.096Z,1019.45
2018-06-25T07:32:47.109Z,1019.44
2018-06-25T07:33:47.103Z,1019.43
2018-06-25T07:34:47.125Z,1019.44
2018-06-25T07:35:47.110Z,1019.43
2018-06-25T07:36:47.101Z,1019.43
2018-06-25T07:37:47.111Z,1019.44
2018-06-25T07:38:47.103Z,1019.46
2018-06-25T07:39:47.100Z,1019.46
2018-06-25T07:40:47.114Z,1019.41
2018-06-25T07:41:47.118Z,1019.45
2018-06-25T07:42:47.132Z,1019.45
2018-06-25T07:43:47.111Z,1019.41
2018-06-25T07:44:47.115Z,1019.44
2018-06-25T07:45:47.320Z,1019.45
2018-06-25T07:46:47.308Z,1019.47
2018-06-25T07:47:47.112Z,1019.44
2018-06-25T07:48:47.305Z,1019.44
2018-06-25T07:49:47.113Z,1019.46
2018-06-25T07:50:47.111Z,1019.46
2018-06-25T07:51:47.106Z,1019.46
2018-06-25T07:52:47.108Z,1019.46
2018-06-25T07:53:47.110Z,1019.49
2018-06-25T07:54:47.318Z,1019.52
2018-06-25T07:55:47.109Z,1019.50
2018-06-25T07:56:47.110Z,1019.49
2018-06-25T07:57:47.119Z,1019.53
2018-06-25T07:58:47.109Z,1019.52
2018-06-25T07:59:47.322Z,1019.58
2018-06-25T08:00:47.314Z,1019.53
2018-06-25T08:01:47.125Z,1019.55
2018-06-25T08:02:47.113Z,1019.54
2018-06-25T08:03:47.317Z,1019.52
2018-06-25T08:04:47.113Z,1019.60
2018-06-25T08:05:47.329Z,1019.54
2018-06-25T08:06:47.316Z,1019.56
2018-06-25T08:07:47.127Z,1019.60
2018-06-25T08:08:47.127Z,1019.56
2018-06-25T08:09:47.131Z,1019.59
2018-06-25T08:10:47.320Z,1019.59
2018-06-25T08:11:47.119Z,1019.59
2018-06-25T08:12:47.321Z,1019.58
2018-06-25T08:13:47.326Z,1019.57
2018-06-25T08:14:47.323Z,1019.59
2018-06-25T08:15:47.328Z,1019.64
2018-06-25T08:16:47.341Z,1019.59
2018-06-25T08:17:47.121Z,1019.63
2018-06-25T08:18:47.341Z,1019.65
2018-06-25T08:19:47.127Z,1019.65
2018-06-25T08:20:47.125Z,1019.69
2018-06-25T08:21:47.127Z,1019.68
2018-06-25T08:22:47.136Z,1019.67
2018-06-25T08:23:47.162Z,1019.68
2018-06-25T08:24:47.141Z,1019.67
2018-06-25T08:25:47.140Z,1019.69
2018-06-25T08:26:47.131Z,1019.71
2018-06-25T08:27:47.132Z,1019.72
2018-06-25T08:28:47.149Z,1019.76
2018-06-25T08:29:47.366Z,1019.74
2018-06-25T08:30:47.144Z,1019.76
2018-06-25T08:31:47.158Z,1019.76
2018-06-25T08:32:47.178Z,1019.78
2018-06-25T08:33:47.147Z,1019.79
2018-06-25T08:34:47.163Z,1019.76
2018-06-25T08:35:47.138Z,1019.76
2018-06-25T08:36:47.136Z,1019.74
2018-06-25T08:37:47.342Z,1019.75
2018-06-25T08:38:47.358Z,1019.77
2018-06-25T08:39:47.151Z,1019.75
2018-06-25T08:40:47.344Z,1019.77
2018-06-25T08:41:47.163Z,1019.74
2018-06-25T08:42:47.143Z,1019.73
2018-06-25T08:43:47.157Z,1019.73
2018-06-25T08:44:47.154Z,1019.80
2018-06-25T08:45:47.169Z,1019.79
2018-06-25T08:46:47.160Z,1019.84
2018-06-25T08:47:47.150Z,1019.80
2018-06-25T08:48:47.159Z,1019.81
2018-06-25T08:49:47.158Z,1019.82
2018-06-25T08:50:47.163Z,1019.80
2018-06-25T08:51:47.200Z,1019.83
2018-06-25T08:52:47.151Z,1019.80
2018-06-25T08:53:47.164Z,1019.85
2018-06-25T08:54:47.154Z,1019.85
2018-06-25T08:55:47.155Z,1019.85
2018-06-25T08:56:47.361Z,1019.87
2018-06-25T08:57:47.175Z,1019.87
2018-06-25T08:58:47.157Z,1019.86
2018-06-25T08:59:47.359Z,1019.89
2018-06-25T09:00:47.364Z,1019.85
2018-06-25T09:01:47.364Z,1019.93
2018-06-25T09:02:47.160Z,1019.92
2018-06-25T09:03:47.159Z,1019.91
2018-06-25T09:04:47.166Z,1019.91
2018-06-25T09:05:47.377Z,1019.90
2018-06-25T09:06:47.164Z,1019.89
2018-06-25T09:07:47.177Z,1019.91
2018-06-25T09:08:47.168Z,1019.90
2018-06-25T09:09:47.238Z,1019.93
2018-06-25T09:10:47.386Z,1019.90
2018-06-25T09:11:47.168Z,1019.89
2018-06-25T09:12:47.171Z,1019.90
2018-06-25T09:13:47.377Z,1019.93
2018-06-25T09:14:47.173Z,1019.87
2018-06-25T09:15:47.178Z,1019.92
2018-06-25T09:16:47.176Z,1019.95
2018-06-25T09:17:47.382Z,1019.94
2018-06-25T09:18:47.380Z,1019.99
2018-06-25T09:19:47.179Z,1019.95
2018-06-25T09:20:47.180Z,1019.99
2018-06-25T09:21:47.181Z,1019.97
2018-06-25T09:22:47.385Z,1019.99
2018-06-25T09:23:47.193Z,1019.96
2018-06-25T09:24:47.186Z,1019.93
2018-06-25T09:25:47.189Z,1019.99
2018-06-25T09:26:47.198Z,1019.94
2018-06-25T09:27:47.222Z,1019.97
2018-06-25T09:28:47.193Z,1019.95
2018-06-25T09:29:47.240Z,1019.96
2018-06-25T09:30:47.202Z,1019.91
2018-06-25T09:31:47.193Z,1019.89
2018-06-25T09:32:47.413Z,1019.92
2018-06-25T09:33:47.198Z,1019.92
2018-06-25T09:34:47.402Z,1019.98
2018-06-25T09:35:47.400Z,1019.97
2018-06-25T09:36:47.217Z,1019.95
2018-06-25T09:37:47.201Z,1019.92
2018-06-25T09:38:47.202Z,1019.90
2018-06-25T09:39:47.203Z,1019.93
2018-06-25T09:40:47.257Z,1019.89
2018-06-25T09:41:47.597Z,1019.90
2018-06-25T09:42:47.422Z,1019.96
2018-06-25T09:43:47.214Z,1019.95
2018-06-25T09:44:47.224Z,1019.95
2018-06-25T09:45:47.217Z,1019.97
2018-06-25T09:46:47.228Z,1019.97
2018-06-25T09:47:47.433Z,1019.97
2018-06-25T09:48:47.228Z,1019.95
2018-06-25T09:49:47.232Z,1019.94
2018-06-25T09:50:47.433Z,1019.93
2018-06-25T09:51:47.222Z,1019.98
2018-06-25T09:52:47.223Z,1019.97
2018-06-25T09:53:47.427Z,1019.98
2018-06-25T09:54:47.282Z,1019.99
2018-06-25T09:55:47.239Z,1019.99
2018-06-25T09:56:47.433Z,1019.95
2018-06-25T09:57:47.231Z,1019.98
2018-06-25T09:58:47.435Z,1019.94
2018-06-25T09:59:47.233Z,1019.93
2018-06-25T10:00:47.254Z,1019.96
2018-06-25T10:01:47.238Z,1019.97
2018-06-25T10:02:47.241Z,1019.98
2018-06-25T10:03:47.241Z,1019.96
2018-06-25T10:04:47.254Z,1019.96
2018-06-25T10:05:47.477Z,1019.97
2018-06-25T10:06:47.448Z,1019.96
2018-06-25T10:07:47.250Z,1019.97
2018-06-25T10:08:47.249Z,1019.95
2018-06-25T10:09:47.254Z,1019.97
2018-06-25T10:10:47.456Z,1019.97
2018-06-25T10:11:47.254Z,1019.95
2018-06-25T10:12:47.467Z,1019.94
2018-06-25T10:13:47.259Z,1019.93
2018-06-25T10:14:47.263Z,1019.89
2018-06-25T10:15:47.264Z,1019.93
2018-06-25T10:16:47.266Z,1019.89
2018-06-25T10:17:47.275Z,1019.92
2018-06-25T10:18:47.267Z,1019.89
2018-06-25T10:19:47.469Z,1019.91
2018-06-25T10:20:47.285Z,1019.94
2018-06-25T10:21:47.281Z,1019.95
2018-06-25T10:22:47.480Z,1019.96
2018-06-25T10:23:47.477Z,1019.98
2018-06-25T10:24:47.278Z,1019.96
2018-06-25T10:25:47.293Z,1020.00
2018-06-25T10:26:47.496Z,1020.00
2018-06-25T10:27:47.281Z,1020.00
2018-06-25T10:28:47.285Z,1020.05
2018-06-25T10:29:47.498Z,1020.03
2018-06-25T10:30:47.301Z,1020.06
2018-06-25T10:31:47.300Z,1020.01
2018-06-25T10:32:47.307Z,1020.01
2018-06-25T10:33:47.307Z,1020.04
2018-06-25T10:34:47.330Z,1020.06
2018-06-25T10:35:47.305Z,1020.03
2018-06-25T10:36:47.500Z,1020.04
2018-06-25T10:37:47.297Z,1020.00
2018-06-25T10:38:47.301Z,1020.04
2018-06-25T10:39:47.316Z,1020.08
2018-06-25T10:40:47.303Z,1020.07
2018-06-25T10:41:47.319Z,1020.08
2018-06-25T10:42:47.318Z,1020.07
2018-06-25T10:43:47.306Z,1020.09
2018-06-25T10:44:47.310Z,1020.13
2018-06-25T10:45:47.313Z,1020.13
2018-06-25T10:46:47.324Z,1020.12
2018-06-25T10:47:47.326Z,1020.11
2018-06-25T10:48:47.320Z,1020.12
2018-06-25T10:49:47.320Z,1020.14
2018-06-25T10:50:47.322Z,1020.15
2018-06-25T10:51:47.531Z,1020.14
2018-06-25T10:52:47.322Z,1020.15
2018-06-25T10:53:47.323Z,1020.16
2018-06-25T10:54:47.324Z,1020.12
2018-06-25T10:55:47.530Z,1020.17
2018-06-25T10:56:47.326Z,1020.14
2018-06-25T10:57:47.330Z,1020.12
2018-06-25T10:58:47.335Z,1020.12
2018-06-25T10:59:47.506Z,1020.11
2018-06-25T11:00:47.335Z,1020.10
2018-06-25T11:01:47.539Z,1020.09
2018-06-25T11:02:47.348Z,1020.11
2018-06-25T11:03:47.340Z,1020.13
2018-06-25T11:04:47.347Z,1020.10
2018-06-25T11:05:47.368Z,1020.07
2018-06-25T11:06:47.346Z,1020.08
2018-06-25T11:07:47.439Z,1020.09
2018-06-25T11:08:47.362Z,1020.09
2018-06-25T11:09:47.551Z,1020.07
2018-06-25T11:10:47.553Z,1020.05
2018-06-25T11:11:47.556Z,1020.07
2018-06-25T11:12:47.390Z,1020.07
2018-06-25T11:13:47.359Z,1020.03
2018-06-25T11:14:47.365Z,1020.02
2018-06-25T11:15:47.567Z,1020.01
2018-06-25T11:16:47.362Z,1020.05
2018-06-25T11:17:47.577Z,1020.03
2018-06-25T11:18:47.367Z,1019.99
2018-06-25T11:19:47.372Z,1019.97
2018-06-25T11:20:47.372Z,1019.94
2018-06-25T11:21:47.574Z,1019.99
2018-06-25T11:22:47.387Z,1019.93
2018-06-25T11:23:47.588Z,1019.95
2018-06-25T11:24:47.577Z,1019.93
2018-06-25T11:25:47.581Z,1019.91
2018-06-25T11:26:47.420Z,1019.93
2018-06-25T11:27:47.654Z,1019.94
2018-06-25T11:28:47.596Z,1019.96
2018-06-25T11:29:47.386Z,1019.96
2018-06-25T11:30:47.593Z,1019.98
2018-06-25T11:31:47.402Z,1019.99
2018-06-25T11:32:47.604Z,1019.97
2018-06-25T11:33:47.625Z,1020.00
2018-06-25T11:34:47.410Z,1019.99
2018-06-25T11:35:47.397Z,1019.99
2018-06-25T11:36:47.611Z,1019.96
2018-06-25T11:37:47.404Z,1019.99
2018-06-25T11:38:47.419Z,1019.94
2018-06-25T11:39:47.411Z,1019.98
2018-06-25T11:40:47.410Z,1019.94
2018-06-25T11:41:47.467Z,1019.95
2018-06-25T11:42:47.410Z,1019.98
2018-06-25T11:43:47.415Z,1019.99
2018-06-25T11:44:47.416Z,1020.03
2018-06-25T11:45:47.422Z,1019.98
2018-06-25T11:46:47.636Z,1020.07
2018-06-25T11:47:47.623Z,1020.05
2018-06-25T11:48:47.423Z,1020.05
2018-06-25T11:49:47.439Z,1020.03
2018-06-25T11:50:47.442Z,1020.05
2018-06-25T11:51:47.503Z,1020.04
2018-06-25T11:52:47.434Z,1020.03
2018-06-25T11:53:47.436Z,1020.06
2018-06-25T11:54:47.436Z,1020.03
2018-06-25T11:55:47.447Z,1020.05
2018-06-25T11:56:47.651Z,1020.06
2018-06-25T11:57:47.442Z,1020.09
2018-06-25T11:58:47.443Z,1020.08
2018-06-25T11:59:47.648Z,1020.09
2018-06-25T12:00:47.446Z,1020.08
2018-06-25T12:01:47.544Z,1020.11
2018-06-25T12:02:47.527Z,1020.09
2018-06-25T12:03:47.666Z,1020.06
2018-06-25T12:04:47.454Z,1020.09
2018-06-25T12:05:47.472Z,1020.08